Time;durP1;ratioP1;P1;durP2;ratioP2;P2;SDS_P1;SDS_P2;PMS_P1;PMS_P2;Temp;Humidity;BMP_temperature;BMP_pressure;BME280_temperature;BME280_humidity;BME280_pressure;Samples;Min_cycle;Max_cycle;Signal;HPM_P1;HPM_P2
2023/09/20 00:00:12;;;;;;;12.48;5.40;;;;;;;;;;5111569;28;20533;-77
2023/09/20 00:02:39;;;;;;;12.07;5.53;;;;;;;;;;5108721;28;20051;-77
2023/09/20 00:05:12;;;;;;;12.70;5.10;;;;;;;;;;5113913;28;20044;-77
2023/09/20 00:07:38;;;;;;;12.80;5.45;;;;;;;;;;5110035;28;20119;-77
2023/09/20 00:10:04;;;;;;;12.52;5.32;;;;;;;;;;5102409;28;20044;-77
2023/09/20 00:12:30;;;;;;;13.32;5.82;;;;;;;;;;5109494;28;20427;-77
2023/09/20 00:14:56;;;;;;;15.48;6.30;;;;;;;;;;5096242;28;20047;-77
2023/09/20 00:17:23;;;;;;;14.02;5.40;;;;;;;;;;5104466;28;20467;-77
2023/09/20 00:19:49;;;;;;;16.52;6.18;;;;;;;;;;5103310;28;20048;-77
2023/09/20 00:22:15;;;;;;;16.00;5.75;;;;;;;;;;5105804;28;20036;-77
2023/09/20 00:24:41;;;;;;;14.80;6.00;;;;;;;;;;5107966;28;20051;-77
2023/09/20 00:27:08;;;;;;;15.10;6.38;;;;;;;;;;5103188;28;20127;-77
2023/09/20 00:29:34;;;;;;;12.25;5.55;;;;;;;;;;5110112;28;20100;-77
2023/09/20 00:32:00;;;;;;;13.55;5.10;;;;;;;;;;5110403;28;20069;-77
2023/09/20 00:34:27;;;;;;;15.40;5.50;;;;;;;;;;5099982;28;20089;-77
2023/09/20 00:36:53;;;;;;;17.15;5.28;;;;;;;;;;5103519;28;20040;-77
2023/09/20 00:39:19;;;;;;;13.90;5.13;;;;;;;;;;5108999;28;20126;-77
2023/09/20 00:41:47;;;;;;;14.00;5.70;;;;;;;;;;5109551;28;20434;-77
2023/09/20 00:44:14;;;;;;;12.95;4.78;;;;;;;;;;5110155;28;20052;-77
2023/09/20 00:46:42;;;;;;;13.95;4.70;;;;;;;;;;5097606;28;20579;-77
2023/09/20 00:49:08;;;;;;;13.13;4.55;;;;;;;;;;5103835;28;20051;-77
2023/09/20 00:51:34;;;;;;;12.63;4.85;;;;;;;;;;5097657;28;20560;-77
2023/09/20 00:54:04;;;;;;;12.05;4.38;;;;;;;;;;5110700;28;20367;-77
2023/09/20 00:56:30;;;;;;;10.45;4.40;;;;;;;;;;5110328;28;20418;-77
2023/09/20 00:58:56;;;;;;;11.73;4.65;;;;;;;;;;5107186;28;20046;-77
2023/09/20 01:01:26;;;;;;;12.95;4.72;;;;;;;;;;5106285;28;20044;-77
2023/09/20 01:03:53;;;;;;;10.88;4.45;;;;;;;;;;5107049;28;20479;-77
2023/09/20 01:06:20;;;;;;;12.90;4.50;;;;;;;;;;5092134;28;20075;-77
2023/09/20 01:08:49;;;;;;;12.95;4.55;;;;;;;;;;5092933;28;20051;-77
2023/09/20 01:11:15;;;;;;;13.55;4.85;;;;;;;;;;5110830;28;20047;-77
2023/09/20 01:13:41;;;;;;;12.77;4.88;;;;;;;;;;5110911;28;20487;-77
2023/09/20 01:16:09;;;;;;;14.35;4.30;;;;;;;;;;5111735;28;20039;-77
2023/09/20 01:18:35;;;;;;;17.00;5.32;;;;;;;;;;5100253;28;20043;-77
2023/09/20 01:21:03;;;;;;;13.27;4.43;;;;;;;;;;5104294;28;20048;-77
2023/09/20 01:23:32;;;;;;;12.02;4.68;;;;;;;;;;5104566;28;20118;-77
2023/09/20 01:25:59;;;;;;;16.85;5.30;;;;;;;;;;5103238;28;20048;-77
2023/09/20 01:28:28;;;;;;;12.68;4.97;;;;;;;;;;5107789;28;20040;-77
2023/09/20 01:30:54;;;;;;;12.25;5.18;;;;;;;;;;5100071;28;20131;-77
2023/09/20 01:33:20;;;;;;;11.65;4.47;;;;;;;;;;5109397;28;20093;-77
2023/09/20 01:35:47;;;;;;;11.18;5.03;;;;;;;;;;5103335;28;20069;-77
2023/09/20 01:38:13;;;;;;;13.18;4.82;;;;;;;;;;5112396;28;20147;-76
2023/09/20 01:40:39;;;;;;;13.07;5.18;;;;;;;;;;5105984;28;20105;-77
2023/09/20 01:43:11;;;;;;;12.55;5.50;;;;;;;;;;5101589;28;20438;-77
2023/09/20 01:45:38;;;;;;;15.18;5.40;;;;;;;;;;5102442;28;20486;-77
2023/09/20 01:48:06;;;;;;;16.13;5.65;;;;;;;;;;5110381;28;20055;-77
2023/09/20 01:50:33;;;;;;;13.48;4.95;;;;;;;;;;5115291;28;20055;-77
2023/09/20 01:53:00;;;;;;;16.35;4.63;;;;;;;;;;5115255;28;20047;-77
2023/09/20 01:55:27;;;;;;;11.95;4.55;;;;;;;;;;5102738;28;20499;-77
2023/09/20 01:57:57;;;;;;;12.07;5.00;;;;;;;;;;5104401;28;20048;-77
2023/09/20 02:00:31;;;;;;;10.88;4.90;;;;;;;;;;5095577;28;20094;-77
2023/09/20 02:03:00;;;;;;;15.43;5.65;;;;;;;;;;5108186;28;20043;-77
2023/09/20 02:05:26;;;;;;;19.25;4.55;;;;;;;;;;5095715;28;20055;-77
2023/09/20 02:07:59;;;;;;;13.93;4.35;;;;;;;;;;5107614;28;20147;-77
2023/09/20 02:10:25;;;;;;;15.40;5.18;;;;;;;;;;5111787;28;20043;-77
2023/09/20 02:12:53;;;;;;;9.02;4.45;;;;;;;;;;5106128;28;20035;-77
2023/09/20 02:15:20;;;;;;;12.85;4.63;;;;;;;;;;5110209;28;20098;-77
2023/09/20 02:17:46;;;;;;;17.48;4.97;;;;;;;;;;5103764;28;20047;-77
2023/09/20 02:20:19;;;;;;;16.83;4.95;;;;;;;;;;5099081;27;20101;-77
2023/09/20 02:22:45;;;;;;;18.38;5.38;;;;;;;;;;5102461;28;20128;-77
2023/09/20 02:25:11;;;;;;;13.10;4.53;;;;;;;;;;5101160;28;20395;-77
2023/09/20 02:27:42;;;;;;;16.60;4.88;;;;;;;;;;5108105;28;20386;-77
2023/09/20 02:30:14;;;;;;;13.40;4.80;;;;;;;;;;5111467;28;20050;-76
2023/09/20 02:32:41;;;;;;;11.65;4.90;;;;;;;;;;5113824;28;20387;-76
2023/09/20 02:35:07;;;;;;;12.45;4.75;;;;;;;;;;5102037;28;20066;-76
2023/09/20 02:37:34;;;;;;;12.98;4.50;;;;;;;;;;5106461;28;20488;-77
2023/09/20 02:40:00;;;;;;;16.20;4.82;;;;;;;;;;5100961;28;20471;-77
2023/09/20 02:42:27;;;;;;;13.48;5.32;;;;;;;;;;5111994;28;20407;-77
2023/09/20 02:44:53;;;;;;;16.13;4.63;;;;;;;;;;5110316;28;20139;-77
2023/09/20 02:47:20;;;;;;;11.15;4.53;;;;;;;;;;5105121;28;20050;-77
2023/09/20 02:49:48;;;;;;;15.20;4.60;;;;;;;;;;5111726;28;20031;-77
2023/09/20 02:52:17;;;;;;;11.63;4.55;;;;;;;;;;5103599;28;20048;-77
2023/09/20 02:54:43;;;;;;;12.35;4.20;;;;;;;;;;5105585;28;20043;-77
2023/09/20 02:57:11;;;;;;;10.85;4.35;;;;;;;;;;5104002;27;20047;-77
2023/09/20 02:59:38;;;;;;;12.52;4.60;;;;;;;;;;5109998;28;20096;-77
2023/09/20 03:02:05;;;;;;;11.50;4.20;;;;;;;;;;5108656;28;20101;-77
2023/09/20 03:04:31;;;;;;;11.93;4.30;;;;;;;;;;5102918;28;20052;-77
2023/09/20 03:06:57;;;;;;;12.80;4.82;;;;;;;;;;5101028;28;20044;-77
2023/09/20 03:09:26;;;;;;;11.00;4.32;;;;;;;;;;5103203;28;20115;-77
2023/09/20 03:11:55;;;;;;;16.40;4.80;;;;;;;;;;5096104;28;20073;-77
2023/09/20 03:14:23;;;;;;;14.85;4.75;;;;;;;;;;5113410;28;20512;-77
2023/09/20 03:16:49;;;;;;;9.90;4.65;;;;;;;;;;5109796;27;20483;-77
2023/09/20 03:19:15;;;;;;;13.80;4.93;;;;;;;;;;5106583;28;20075;-77
2023/09/20 03:21:42;;;;;;;10.18;4.40;;;;;;;;;;5109395;28;20055;-77
2023/09/20 03:24:09;;;;;;;13.82;4.93;;;;;;;;;;5100897;28;20055;-77
2023/09/20 03:26:35;;;;;;;11.68;4.00;;;;;;;;;;5113998;28;20043;-77
2023/09/20 03:29:03;;;;;;;10.77;4.45;;;;;;;;;;5112733;28;20071;-77
2023/09/20 03:31:31;;;;;;;13.50;4.53;;;;;;;;;;5113836;28;20054;-77
2023/09/20 03:33:59;;;;;;;13.80;4.80;;;;;;;;;;5109591;27;20390;-77
2023/09/20 03:36:26;;;;;;;11.45;4.30;;;;;;;;;;5107645;28;20043;-77
2023/09/20 03:38:55;;;;;;;11.00;4.70;;;;;;;;;;5106755;28;20048;-77
2023/09/20 03:41:21;;;;;;;12.75;4.85;;;;;;;;;;5099754;28;20070;-77
2023/09/20 03:43:47;;;;;;;14.05;4.40;;;;;;;;;;5113081;28;20040;-77
2023/09/20 03:46:13;;;;;;;9.90;4.25;;;;;;;;;;5103203;28;20117;-77
2023/09/20 03:48:39;;;;;;;8.68;3.90;;;;;;;;;;5113674;28;20370;-77
2023/09/20 03:51:07;;;;;;;9.98;4.43;;;;;;;;;;5106359;28;20040;-77
2023/09/20 03:53:35;;;;;;;13.68;4.57;;;;;;;;;;5107821;28;20052;-77
2023/09/20 03:56:02;;;;;;;11.75;4.60;;;;;;;;;;5093439;28;20373;-77
2023/09/20 03:58:28;;;;;;;12.38;4.65;;;;;;;;;;5093544;28;20132;-77
2023/09/20 04:00:56;;;;;;;12.02;4.80;;;;;;;;;;5106356;27;20050;-77
2023/09/20 04:03:22;;;;;;;10.80;4.70;;;;;;;;;;5102204;28;20391;-77
2023/09/20 04:05:48;;;;;;;12.85;4.80;;;;;;;;;;5111696;28;20105;-77
2023/09/20 04:08:18;;;;;;;10.15;4.38;;;;;;;;;;5107391;28;20050;-77
2023/09/20 04:10:44;;;;;;;11.88;5.00;;;;;;;;;;5114987;27;20126;-77
2023/09/20 04:13:10;;;;;;;9.00;4.80;;;;;;;;;;5112990;28;20126;-77
2023/09/20 04:15:38;;;;;;;12.52;5.07;;;;;;;;;;5108589;28;20059;-77
2023/09/20 04:18:08;;;;;;;9.88;4.97;;;;;;;;;;5092942;28;20048;-77
2023/09/20 04:20:34;;;;;;;15.57;5.75;;;;;;;;;;5117211;27;20138;-77
2023/09/20 04:23:01;;;;;;;9.95;5.10;;;;;;;;;;5119034;27;20043;-77
2023/09/20 04:25:27;;;;;;;15.10;5.32;;;;;;;;;;5109067;28;20048;-77
2023/09/20 04:27:53;;;;;;;10.23;5.07;;;;;;;;;;5094236;28;20059;-77
2023/09/20 04:30:19;;;;;;;10.27;4.97;;;;;;;;;;5096739;28;20043;-77
2023/09/20 04:32:45;;;;;;;13.77;5.32;;;;;;;;;;5113606;28;20082;-77
2023/09/20 04:35:11;;;;;;;11.25;5.20;;;;;;;;;;5112106;28;20467;-77
2023/09/20 04:37:38;;;;;;;13.73;5.15;;;;;;;;;;5113310;28;20117;-77
2023/09/20 04:40:07;;;;;;;14.10;5.15;;;;;;;;;;5107973;28;20392;-77
2023/09/20 04:42:33;;;;;;;13.13;5.57;;;;;;;;;;5112516;28;20048;-77
2023/09/20 04:44:59;;;;;;;9.55;5.20;;;;;;;;;;5111176;28;20084;-77
2023/09/20 04:47:25;;;;;;;10.50;5.70;;;;;;;;;;5094264;28;20067;-77
2023/09/20 04:49:51;;;;;;;13.35;5.22;;;;;;;;;;5098050;28;20082;-77
2023/09/20 04:52:18;;;;;;;11.23;5.20;;;;;;;;;;5100725;28;20095;-77
2023/09/20 04:54:45;;;;;;;14.52;5.22;;;;;;;;;;5106938;28;20055;-77
2023/09/20 04:57:14;;;;;;;8.82;4.70;;;;;;;;;;5094331;28;20040;-77
2023/09/20 04:59:40;;;;;;;11.40;5.20;;;;;;;;;;5106274;28;20044;-77
2023/09/20 05:02:08;;;;;;;12.05;5.50;;;;;;;;;;5098044;28;20032;-77
2023/09/20 05:04:34;;;;;;;11.32;5.70;;;;;;;;;;5111177;28;20276;-77
2023/09/20 05:07:07;;;;;;;8.73;5.40;;;;;;;;;;5115102;28;20055;-77
2023/09/20 05:09:37;;;;;;;11.38;4.97;;;;;;;;;;5110215;28;20036;-77
2023/09/20 05:12:03;;;;;;;9.60;4.95;;;;;;;;;;5115442;28;20391;-77
2023/09/20 05:14:30;;;;;;;10.50;5.05;;;;;;;;;;5107148;28;20506;-77
2023/09/20 05:16:56;;;;;;;13.35;5.63;;;;;;;;;;5112165;28;20035;-76
2023/09/20 05:19:25;;;;;;;12.98;5.60;;;;;;;;;;5114126;27;20067;-76
2023/09/20 05:21:51;;;;;;;14.07;5.38;;;;;;;;;;5097010;28;20040;-76
2023/09/20 05:24:17;;;;;;;14.02;5.10;;;;;;;;;;5096552;28;20036;-76
2023/09/20 05:26:43;;;;;;;13.65;5.07;;;;;;;;;;5111700;28;20036;-76
2023/09/20 05:29:10;;;;;;;10.75;4.75;;;;;;;;;;5114155;28;20535;-76
2023/09/20 05:31:36;;;;;;;12.43;5.32;;;;;;;;;;5114852;28;20478;-76
2023/09/20 05:34:02;;;;;;;12.68;5.13;;;;;;;;;;5103513;28;20429;-76
2023/09/20 05:36:29;;;;;;;10.05;5.10;;;;;;;;;;5103287;28;20051;-76
2023/09/20 05:38:55;;;;;;;12.13;5.72;;;;;;;;;;5112829;28;20096;-76
2023/09/20 05:41:22;;;;;;;10.30;5.38;;;;;;;;;;5114079;27;20075;-76
2023/09/20 05:43:48;;;;;;;11.77;5.32;;;;;;;;;;5097886;28;20059;-76
2023/09/20 05:46:14;;;;;;;11.02;5.20;;;;;;;;;;5115739;28;20044;-76
2023/09/20 05:48:44;;;;;;;12.57;5.35;;;;;;;;;;5112331;28;20058;-76
2023/09/20 05:51:14;;;;;;;11.52;4.70;;;;;;;;;;5104633;28;20116;-76
2023/09/20 05:53:42;;;;;;;8.38;4.50;;;;;;;;;;5100450;28;20043;-80
2023/09/20 05:56:10;;;;;;;11.05;5.05;;;;;;;;;;5113338;28;20540;-78
2023/09/20 05:58:36;;;;;;;10.52;4.93;;;;;;;;;;5111827;28;20052;-76
2023/09/20 06:01:02;;;;;;;9.63;5.00;;;;;;;;;;5115971;28;20043;-77
2023/09/20 06:03:28;;;;;;;10.23;4.45;;;;;;;;;;5115884;28;20126;-78
2023/09/20 06:05:55;;;;;;;11.57;5.15;;;;;;;;;;5116003;28;20054;-76
2023/09/20 06:08:21;;;;;;;11.60;4.97;;;;;;;;;;5113312;28;20162;-77
2023/09/20 06:10:47;;;;;;;10.70;4.93;;;;;;;;;;5103632;28;20123;-75
2023/09/20 06:13:13;;;;;;;13.35;4.95;;;;;;;;;;5111117;28;20440;-77
2023/09/20 06:15:39;;;;;;;9.88;4.95;;;;;;;;;;5111701;27;20047;-77
2023/09/20 06:18:07;;;;;;;9.52;4.80;;;;;;;;;;5101919;28;20040;-75
2023/09/20 06:20:33;;;;;;;10.30;4.43;;;;;;;;;;5109082;28;20460;-75
2023/09/20 06:22:59;;;;;;;12.05;4.60;;;;;;;;;;5111587;28;20100;-75
2023/09/20 06:25:26;;;;;;;9.73;5.22;;;;;;;;;;5114031;28;20051;-76
2023/09/20 06:27:53;;;;;;;9.00;4.68;;;;;;;;;;5102547;28;20051;-76
2023/09/20 06:30:24;;;;;;;11.82;4.75;;;;;;;;;;5096605;28;20047;-77
2023/09/20 06:32:50;;;;;;;10.57;4.78;;;;;;;;;;5103889;28;20041;-77
2023/09/20 06:35:19;;;;;;;9.85;4.78;;;;;;;;;;5112940;28;20074;-77
2023/09/20 06:37:47;;;;;;;9.70;4.75;;;;;;;;;;5102194;28;20056;-77
2023/09/20 06:40:56;;;;;;;11.98;5.07;;;;;;;;;;5110672;28;20051;-77
2023/09/20 06:43:02;;;;;;;9.93;4.32;;;;;;;;;;5100124;28;20101;-77
2023/09/20 06:45:28;;;;;;;8.68;4.72;;;;;;;;;;5105401;28;22178;-77
2023/09/20 06:47:55;;;;;;;8.90;4.80;;;;;;;;;;5110308;28;20096;-77
2023/09/20 06:50:21;;;;;;;11.07;5.10;;;;;;;;;;5105453;28;20056;-77
2023/09/20 06:52:48;;;;;;;9.85;4.30;;;;;;;;;;5102045;28;20093;-77
2023/09/20 06:55:17;;;;;;;9.48;4.68;;;;;;;;;;5102955;28;20484;-77
2023/09/20 06:57:44;;;;;;;13.45;4.55;;;;;;;;;;5107315;28;20091;-77
2023/09/20 07:00:26;;;;;;;9.63;4.45;;;;;;;;;;5101955;28;20115;-78
2023/09/20 07:02:53;;;;;;;13.35;5.05;;;;;;;;;;5095392;28;20122;-77
2023/09/20 07:05:21;;;;;;;7.60;4.00;;;;;;;;;;5100185;28;20103;-77
2023/09/20 07:07:47;;;;;;;7.82;4.13;;;;;;;;;;5102669;28;20126;-77
2023/09/20 07:10:15;;;;;;;7.45;4.80;;;;;;;;;;5101931;28;20115;-77
2023/09/20 07:12:42;;;;;;;8.32;4.28;;;;;;;;;;5095681;28;20105;-77
2023/09/20 07:15:09;;;;;;;9.38;4.05;;;;;;;;;;5099619;28;20039;-77
2023/09/20 07:17:35;;;;;;;8.23;4.45;;;;;;;;;;5097732;28;20079;-77
2023/09/20 07:20:08;;;;;;;7.95;4.28;;;;;;;;;;5102054;28;20036;-76
2023/09/20 07:22:34;;;;;;;10.45;4.43;;;;;;;;;;5100861;27;20048;-76
2023/09/20 07:25:04;;;;;;;8.60;4.03;;;;;;;;;;5111858;28;20039;-77
2023/09/20 07:27:32;;;;;;;11.18;4.05;;;;;;;;;;5083084;28;20119;-77
2023/09/20 07:29:59;;;;;;;11.65;4.18;;;;;;;;;;5112460;28;20422;-77
2023/09/20 07:32:26;;;;;;;9.20;4.03;;;;;;;;;;5113885;28;20044;-77
2023/09/20 07:34:59;;;;;;;7.05;3.80;;;;;;;;;;5100548;28;20083;-76
2023/09/20 07:37:25;;;;;;;7.70;4.15;;;;;;;;;;5111689;28;20058;-76
2023/09/20 07:39:52;;;;;;;8.15;3.75;;;;;;;;;;5109901;28;20044;-76
2023/09/20 07:42:20;;;;;;;9.30;3.80;;;;;;;;;;5114206;28;20399;-76
2023/09/20 07:44:46;;;;;;;8.48;4.32;;;;;;;;;;5113311;28;20118;-76
2023/09/20 07:47:13;;;;;;;8.93;3.70;;;;;;;;;;5099766;28;20051;-75
2023/09/20 07:49:39;;;;;;;7.30;3.80;;;;;;;;;;5102999;27;20491;-76
2023/09/20 07:52:09;;;;;;;5.63;3.72;;;;;;;;;;5106205;28;20056;-76
2023/09/20 07:54:35;;;;;;;7.75;3.88;;;;;;;;;;5110378;28;20152;-77
2023/09/20 07:57:01;;;;;;;8.82;3.55;;;;;;;;;;5109581;27;20040;-76
2023/09/20 07:59:27;;;;;;;8.10;4.30;;;;;;;;;;5113741;28;20055;-75
2023/09/20 08:01:54;;;;;;;8.43;3.80;;;;;;;;;;5114069;28;20487;-76
2023/09/20 08:04:21;;;;;;;9.32;3.85;;;;;;;;;;5106657;28;20056;-76
2023/09/20 08:06:48;;;;;;;8.70;4.15;;;;;;;;;;5110298;28;20501;-76
2023/09/20 08:09:14;;;;;;;9.25;3.63;;;;;;;;;;5103454;28;20518;-76
2023/09/20 08:11:40;;;;;;;9.20;4.10;;;;;;;;;;5103345;28;20412;-76
2023/09/20 08:14:06;;;;;;;12.38;4.38;;;;;;;;;;5109437;28;20046;-76
2023/09/20 08:16:33;;;;;;;8.60;3.80;;;;;;;;;;5114105;28;20059;-76
2023/09/20 08:19:11;;;;;;;9.35;3.83;;;;;;;;;;5107181;28;20047;-76
2023/09/20 08:21:38;;;;;;;10.65;4.30;;;;;;;;;;5104098;28;20371;-76
2023/09/20 09:00:24;;;;;;;9.15;4.93;;;;;;;;;;5106323;28;20348;-76
2023/09/20 09:02:57;;;;;;;8.13;4.70;;;;;;;;;;5117699;27;20407;-76
2023/09/20 09:05:25;;;;;;;6.75;4.93;;;;;;;;;;5103961;28;20379;-76
2023/09/20 09:07:52;;;;;;;5.97;4.57;;;;;;;;;;5110507;28;20055;-75
2023/09/20 09:10:18;;;;;;;6.68;4.95;;;;;;;;;;5117408;28;20101;-76
2023/09/20 09:12:44;;;;;;;6.93;4.57;;;;;;;;;;5104024;28;20067;-77
2023/09/20 09:15:11;;;;;;;7.63;4.95;;;;;;;;;;5103655;28;20500;-77
2023/09/20 09:17:41;;;;;;;7.18;4.57;;;;;;;;;;5107947;28;20411;-77
2023/09/20 09:20:11;;;;;;;9.52;4.85;;;;;;;;;;5110213;28;20035;-76
2023/09/20 09:22:38;;;;;;;9.32;4.85;;;;;;;;;;5111675;27;20036;-76
2023/09/20 09:25:09;;;;;;;8.27;4.63;;;;;;;;;;5102505;28;20040;-75
2023/09/20 09:27:36;;;;;;;7.03;4.45;;;;;;;;;;5105649;28;20067;-76
2023/09/20 09:30:02;;;;;;;8.57;4.85;;;;;;;;;;5115174;28;20040;-76
2023/09/20 09:32:35;;;;;;;5.88;4.45;;;;;;;;;;5096846;28;20040;-76
2023/09/20 09:35:03;;;;;;;7.15;4.55;;;;;;;;;;5099066;28;20043;-76
2023/09/20 09:37:31;;;;;;;6.90;4.55;;;;;;;;;;5116231;28;20146;-76
2023/09/20 09:40:01;;;;;;;5.10;4.05;;;;;;;;;;5116221;28;20114;-76
2023/09/20 09:42:28;;;;;;;6.43;4.38;;;;;;;;;;5107422;28;20040;-76
2023/09/20 09:44:55;;;;;;;6.30;4.25;;;;;;;;;;5113206;28;20108;-76
2023/09/20 09:47:24;;;;;;;8.07;4.45;;;;;;;;;;5114645;28;20075;-76
2023/09/20 09:49:52;;;;;;;5.07;4.28;;;;;;;;;;5112915;28;20059;-76
2023/09/20 09:52:18;;;;;;;7.18;4.53;;;;;;;;;;5115200;28;20120;-76
2023/09/20 09:54:47;;;;;;;6.10;3.80;;;;;;;;;;5100827;28;20044;-80
2023/09/20 09:57:13;;;;;;;5.55;4.10;;;;;;;;;;5096433;28;20075;-76
2023/09/20 09:59:40;;;;;;;6.65;4.10;;;;;;;;;;5101539;28;20115;-76
2023/09/20 10:02:12;;;;;;;7.32;4.25;;;;;;;;;;5115964;28;20554;-77
2023/09/20 10:04:38;;;;;;;8.80;4.20;;;;;;;;;;5108506;28;20051;-76
2023/09/20 10:07:16;;;;;;;6.20;4.13;;;;;;;;;;5105123;27;20460;-76
2023/09/20 10:09:43;;;;;;;6.40;3.78;;;;;;;;;;5113469;28;20047;-79
2023/09/20 10:12:10;;;;;;;6.32;4.05;;;;;;;;;;5111230;28;20047;-78
2023/09/20 10:14:39;;;;;;;5.85;3.75;;;;;;;;;;5110497;28;20471;-78
2023/09/20 10:17:08;;;;;;;6.55;4.00;;;;;;;;;;5112664;28;20048;-78
2023/09/20 10:19:38;;;;;;;7.65;3.85;;;;;;;;;;5109992;28;20078;-78
2023/09/20 10:22:09;;;;;;;6.03;3.80;;;;;;;;;;5115280;28;20064;-78
2023/09/20 10:24:53;;;;;;;4.50;3.85;;;;;;;;;;5114220;28;20128;-78
2023/09/20 10:27:23;;;;;;;5.78;4.25;;;;;;;;;;5121664;27;20492;-79
2023/09/20 10:30:05;;;;;;;6.63;4.40;;;;;;;;;;5105957;28;20043;-78
2023/09/20 10:32:32;;;;;;;5.97;3.53;;;;;;;;;;5104121;28;20108;-78
2023/09/20 10:35:21;;;;;;;5.40;4.22;;;;;;;;;;5103610;28;20048;-78
2023/09/20 10:38:08;;;;;;;6.10;4.20;;;;;;;;;;5105480;28;20055;-77
2023/09/20 10:40:55;;;;;;;6.43;4.22;;;;;;;;;;5099576;27;20049;-79
2023/09/20 10:43:25;;;;;;;6.47;4.60;;;;;;;;;;5106397;28;20067;-81
2023/09/20 10:45:55;;;;;;;5.63;3.90;;;;;;;;;;5100030;28;20044;-78
2023/09/20 10:48:24;;;;;;;7.60;4.72;;;;;;;;;;5099481;28;20050;-83
2023/09/20 10:50:57;;;;;;;4.95;3.83;;;;;;;;;;5094946;28;20333;-78
2023/09/20 10:53:52;;;;;;;8.90;4.45;;;;;;;;;;5107645;28;20043;-78
2023/09/20 10:56:49;;;;;;;6.25;3.85;;;;;;;;;;5118534;28;20099;-79
2023/09/20 10:59:16;;;;;;;;;;;;;;;;;;5086851;28;20067;-78
2023/09/20 11:01:48;;;;;;;5.25;4.03;;;;;;;;;;5103229;28;19947;-78
2023/09/20 11:04:14;;;;;;;6.13;4.20;;;;;;;;;;5107806;28;20097;-82
2023/09/20 11:06:43;;;;;;;5.35;4.10;;;;;;;;;;5099933;28;20036;-77
2023/09/20 11:09:11;;;;;;;6.90;4.38;;;;;;;;;;5110166;28;20116;-78
2023/09/20 11:11:38;;;;;;;6.38;4.60;;;;;;;;;;5115025;28;20456;-77
2023/09/20 11:14:04;;;;;;;6.30;4.72;;;;;;;;;;5109694;28;20472;-77
2023/09/20 11:16:30;;;;;;;8.15;4.70;;;;;;;;;;5104571;28;20436;-78
2023/09/20 11:18:56;;;;;;;10.27;4.50;;;;;;;;;;5101093;28;20040;-78
2023/09/20 11:21:24;;;;;;;5.03;4.50;;;;;;;;;;5109323;28;20051;-78
2023/09/20 11:23:51;;;;;;;8.25;4.50;;;;;;;;;;5099198;28;20047;-79
2023/09/20 11:26:26;;;;;;;5.40;4.28;;;;;;;;;;5107976;28;20466;-78
2023/09/20 11:28:52;;;;;;;;;;;;;;;;;;5113883;28;20391;-78
2023/09/20 11:31:22;;;;;;;5.07;4.10;;;;;;;;;;5100672;28;19931;-78
2023/09/20 11:33:57;;;;;;;7.80;4.20;;;;;;;;;;5113497;28;20047;-78
2023/09/20 11:36:23;;;;;;;5.40;4.40;;;;;;;;;;5113934;28;20067;-78
2023/09/20 11:38:49;;;;;;;7.47;4.05;;;;;;;;;;5102701;28;20052;-78
2023/09/20 11:41:16;;;;;;;6.78;3.97;;;;;;;;;;5112662;28;20044;-79
2023/09/20 11:43:42;;;;;;;8.20;4.57;;;;;;;;;;5111363;27;20492;-78
2023/09/20 11:46:11;;;;;;;5.72;4.50;;;;;;;;;;5107425;28;20540;-78
2023/09/20 11:48:38;;;;;;;6.90;4.05;;;;;;;;;;5104392;28;20051;-78
2023/09/20 11:51:07;;;;;;;7.95;4.45;;;;;;;;;;5099703;28;20123;-78
2023/09/20 11:53:33;;;;;;;6.55;3.88;;;;;;;;;;5113004;28;20047;-78
2023/09/20 11:56:00;;;;;;;7.47;4.53;;;;;;;;;;5111922;28;20457;-78
2023/09/20 11:58:33;;;;;;;7.40;4.57;;;;;;;;;;5110266;28;20039;-78
2023/09/20 12:01:03;;;;;;;5.65;4.78;;;;;;;;;;5113438;28;20097;-78
2023/09/20 12:03:29;;;;;;;6.05;4.40;;;;;;;;;;5113634;28;20047;-78
2023/09/20 12:05:55;;;;;;;6.70;4.60;;;;;;;;;;5097708;28;20105;-78
2023/09/20 12:08:22;;;;;;;7.50;4.68;;;;;;;;;;5111613;28;20039;-78
2023/09/20 12:10:48;;;;;;;7.88;4.45;;;;;;;;;;5098574;28;20395;-78
2023/09/20 12:13:14;;;;;;;7.32;4.55;;;;;;;;;;5101706;28;20735;-78
2023/09/20 12:15:43;;;;;;;6.43;4.53;;;;;;;;;;5092855;28;20036;-78
2023/09/20 12:18:13;;;;;;;9.90;5.28;;;;;;;;;;5098571;28;20051;-78
2023/09/20 12:20:39;;;;;;;7.40;5.00;;;;;;;;;;5113227;28;20051;-79
2023/09/20 12:23:06;;;;;;;7.30;4.78;;;;;;;;;;5101615;28;20051;-78
2023/09/20 12:25:32;;;;;;;6.93;5.35;;;;;;;;;;5094521;28;20048;-78
2023/09/20 12:27:58;;;;;;;6.35;4.78;;;;;;;;;;5104508;28;20055;-78
2023/09/20 12:30:28;;;;;;;7.07;5.43;;;;;;;;;;5112395;28;20122;-78
2023/09/20 12:32:57;;;;;;;6.95;4.75;;;;;;;;;;5112314;28;20504;-78
2023/09/20 12:35:23;;;;;;;8.25;4.80;;;;;;;;;;5112701;28;20040;-78
2023/09/20 12:37:49;;;;;;;5.65;4.15;;;;;;;;;;5113281;28;20550;-78
2023/09/20 12:40:17;;;;;;;5.45;4.28;;;;;;;;;;5106821;28;20051;-78
2023/09/20 12:42:44;;;;;;;7.68;4.70;;;;;;;;;;5105320;28;20603;-81
2023/09/20 12:45:10;;;;;;;7.75;4.63;;;;;;;;;;5105998;28;20487;-81
2023/09/20 12:47:39;;;;;;;6.38;4.70;;;;;;;;;;5109598;28;20051;-78
2023/09/20 12:50:12;;;;;;;5.90;4.03;;;;;;;;;;5113161;28;20067;-78
2023/09/20 12:52:38;;;;;;;8.13;4.40;;;;;;;;;;5113321;28;20039;-78
2023/09/20 12:55:04;;;;;;;6.28;4.10;;;;;;;;;;5110877;28;20044;-77
2023/09/20 12:57:30;;;;;;;8.32;4.47;;;;;;;;;;5101484;28;20055;-77
2023/09/20 12:59:57;;;;;;;6.68;4.10;;;;;;;;;;5112970;28;20050;-77
2023/09/20 13:02:23;;;;;;;5.97;4.05;;;;;;;;;;5113209;28;20108;-78
2023/09/20 13:04:52;;;;;;;6.28;4.07;;;;;;;;;;5097415;28;20044;-78
2023/09/20 13:07:18;;;;;;;8.30;4.50;;;;;;;;;;5100827;28;20052;-78
2023/09/20 13:09:44;;;;;;;9.07;4.70;;;;;;;;;;5100978;28;20051;-77
2023/09/20 13:12:12;;;;;;;6.65;4.63;;;;;;;;;;5100231;28;20468;-78
2023/09/20 13:14:38;;;;;;;6.53;4.13;;;;;;;;;;5105268;28;20054;-78
2023/09/20 13:17:04;;;;;;;6.25;4.70;;;;;;;;;;5112539;28;20116;-78
2023/09/20 13:19:31;;;;;;;6.40;4.65;;;;;;;;;;5109136;28;20450;-77
2023/09/20 13:21:59;;;;;;;5.03;4.53;;;;;;;;;;5113049;28;20083;-78
2023/09/20 13:24:25;;;;;;;6.03;4.30;;;;;;;;;;5113280;28;20047;-78
2023/09/20 13:26:52;;;;;;;7.18;4.90;;;;;;;;;;5104108;28;20075;-78
2023/09/20 13:29:18;;;;;;;6.47;5.22;;;;;;;;;;5108556;27;20043;-78
2023/09/20 13:31:44;;;;;;;7.70;4.90;;;;;;;;;;5112476;28;20039;-80
2023/09/20 13:34:14;;;;;;;9.02;5.75;;;;;;;;;;5116142;27;20131;-77
2023/09/20 13:36:40;;;;;;;7.15;5.20;;;;;;;;;;5114189;28;20074;-78
2023/09/20 13:39:06;;;;;;;7.13;5.97;;;;;;;;;;5104924;28;20157;-76
2023/09/20 13:41:32;;;;;;;13.90;6.20;;;;;;;;;;5116505;28;20048;-75
2023/09/20 13:43:58;;;;;;;7.05;5.40;;;;;;;;;;5114873;28;20040;-76
2023/09/20 13:46:25;;;;;;;7.88;5.75;;;;;;;;;;5115989;28;20047;-76
2023/09/20 13:48:51;;;;;;;7.40;4.90;;;;;;;;;;5112743;28;20044;-76
2023/09/20 13:51:17;;;;;;;8.45;5.13;;;;;;;;;;5111279;28;20043;-75
2023/09/20 13:53:45;;;;;;;6.82;5.45;;;;;;;;;;5106567;28;20044;-75
2023/09/20 13:56:11;;;;;;;6.70;5.13;;;;;;;;;;5109407;28;20449;-78
2023/09/20 13:58:40;;;;;;;10.27;5.57;;;;;;;;;;5105251;28;20471;-77
2023/09/20 14:01:06;;;;;;;5.88;4.95;;;;;;;;;;5116115;28;20048;-76
2023/09/20 14:03:36;;;;;;;6.70;4.78;;;;;;;;;;5109774;27;20123;-76
2023/09/20 14:06:03;;;;;;;7.78;4.70;;;;;;;;;;5115657;28;20085;-76
2023/09/20 14:08:29;;;;;;;7.85;4.97;;;;;;;;;;5126125;27;20122;-76
2023/09/20 14:10:56;;;;;;;6.03;4.30;;;;;;;;;;5119011;27;20114;-76
2023/09/20 14:13:24;;;;;;;7.65;4.65;;;;;;;;;;5116163;28;20079;-77
2023/09/20 14:15:50;;;;;;;8.02;4.50;;;;;;;;;;5130172;27;20048;-76
2023/09/20 14:18:17;;;;;;;5.43;4.75;;;;;;;;;;5104043;28;20549;-77
2023/09/20 14:20:47;;;;;;;7.88;4.25;;;;;;;;;;5112769;28;20047;-76
2023/09/20 14:23:13;;;;;;;8.73;4.07;;;;;;;;;;5115238;28;20373;-76
2023/09/20 14:25:39;;;;;;;6.50;4.10;;;;;;;;;;5115123;28;20402;-76
2023/09/20 14:28:05;;;;;;;7.55;4.32;;;;;;;;;;5115519;28;20520;-76
2023/09/20 14:30:33;;;;;;;6.28;4.13;;;;;;;;;;5115170;28;20053;-81
2023/09/20 14:32:59;;;;;;;6.97;4.30;;;;;;;;;;5106289;28;20104;-76
2023/09/20 14:35:25;;;;;;;7.03;4.20;;;;;;;;;;5096524;27;20047;-77
2023/09/20 14:37:53;;;;;;;6.20;4.30;;;;;;;;;;5112018;28;20134;-76
2023/09/20 14:40:21;;;;;;;6.03;4.50;;;;;;;;;;5113236;28;20478;-76
2023/09/20 14:42:50;;;;;;;6.65;4.78;;;;;;;;;;5115089;27;20047;-76
2023/09/20 14:45:17;;;;;;;7.53;4.25;;;;;;;;;;5107027;27;20044;-76
2023/09/20 14:47:46;;;;;;;8.27;4.38;;;;;;;;;;5102930;28;20123;-76
2023/09/20 14:50:12;;;;;;;12.35;5.82;;;;;;;;;;5114334;28;20114;-76
2023/09/20 14:52:41;;;;;;;9.85;4.93;;;;;;;;;;5106135;28;20039;-76
2023/09/20 14:55:09;;;;;;;4.85;4.20;;;;;;;;;;5102845;28;20039;-76
2023/09/20 14:57:35;;;;;;;7.43;4.25;;;;;;;;;;5127458;27;20054;-76
2023/09/20 15:00:06;;;;;;;7.65;4.65;;;;;;;;;;5112524;28;20039;-76
2023/09/20 15:02:32;;;;;;;8.00;4.50;;;;;;;;;;5099888;28;20048;-76
2023/09/20 15:05:00;;;;;;;5.50;4.25;;;;;;;;;;5096989;28;20526;-76
2023/09/20 15:07:28;;;;;;;8.27;4.63;;;;;;;;;;5097922;27;20052;-76
2023/09/20 15:09:54;;;;;;;6.38;4.63;;;;;;;;;;5114935;27;20040;-76
2023/09/20 15:12:20;;;;;;;7.85;4.30;;;;;;;;;;5095906;28;20123;-76
2023/09/20 15:14:49;;;;;;;5.43;3.97;;;;;;;;;;5100675;28;20067;-76
2023/09/20 15:17:15;;;;;;;6.63;4.22;;;;;;;;;;5092688;28;20048;-76